createdAt,value
2018-04-16T00:00:07.228Z,88.54
2018-04-16T00:02:34.607Z,88.89
2018-04-16T00:05:02.036Z,89.05
2018-04-16T00:07:29.415Z,89.16
2018-04-16T00:09:56.803Z,89.09
2018-04-16T00:12:24.187Z,89.37
2018-04-16T00:14:51.567Z,89.14
2018-04-16T00:17:18.956Z,89.01
2018-04-16T00:19:46.338Z,88.80
2018-04-16T00:22:13.730Z,89.10
2018-04-16T00:24:41.102Z,89.08
2018-04-16T00:27:08.499Z,89.04
2018-04-16T00:29:35.879Z,89.18
2018-04-16T00:32:08.952Z,89.08
2018-04-16T00:34:42.023Z,89.29
2018-04-16T00:40:19.035Z,89.11
2018-04-16T00:42:51.955Z,89.08
2018-04-16T00:45:24.851Z,88.13
2018-04-16T00:47:57.899Z,88.05
2018-04-16T00:50:30.935Z,88.26
2018-04-16T00:53:03.987Z,88.29
2018-04-16T00:55:36.914Z,88.32
2018-04-16T00:58:09.919Z,88.32
2018-04-16T01:00:42.948Z,88.20
2018-04-16T01:03:16.031Z,88.03
2018-04-16T01:05:48.791Z,88.00
2018-04-16T01:08:21.691Z,88.15
2018-04-16T01:10:54.554Z,88.09
2018-04-16T01:13:27.496Z,87.92
2018-04-16T01:16:00.559Z,87.67
2018-04-16T01:18:33.834Z,87.77
2018-04-16T01:21:06.863Z,87.77
2018-04-16T01:23:40.212Z,88.07
2018-04-16T01:26:13.135Z,88.44
2018-04-16T01:28:46.031Z,88.74
2018-04-16T01:31:18.943Z,88.50
2018-04-16T01:33:51.847Z,88.58
2018-04-16T01:36:24.770Z,88.58
2018-04-16T01:38:57.827Z,89.06
2018-04-16T01:41:30.719Z,89.33
2018-04-16T01:44:03.515Z,89.28
2018-04-16T01:46:36.295Z,89.19
2018-04-16T01:49:09.239Z,89.14
2018-04-16T01:51:42.159Z,89.46
2018-04-16T01:54:15.079Z,89.65
2018-04-16T01:56:48.018Z,89.81
2018-04-16T01:59:21.102Z,90.19
2018-04-16T02:01:54.002Z,90.43
2018-04-16T02:04:27.125Z,90.37
2018-04-16T02:10:02.659Z,91.02
2018-04-16T02:12:35.720Z,91.21
2018-04-16T02:15:08.714Z,91.09
2018-04-16T02:17:41.636Z,91.19
2018-04-16T02:20:14.742Z,91.37
2018-04-16T02:22:47.779Z,91.36
2018-04-16T02:25:20.828Z,91.33
2018-04-16T02:27:53.738Z,91.21
2018-04-16T02:30:26.658Z,91.04
2018-04-16T02:32:59.598Z,90.91
2018-04-16T02:35:32.557Z,90.97
2018-04-16T02:38:05.588Z,91.15
2018-04-16T02:40:38.665Z,91.40
2018-04-16T02:43:11.539Z,91.47
2018-04-16T02:48:46.467Z,91.48
2018-04-16T02:51:19.571Z,91.50
2018-04-16T02:53:52.451Z,91.38
2018-04-16T02:56:25.394Z,91.23
2018-04-16T02:58:58.166Z,91.26
2018-04-16T03:01:31.248Z,91.52
2018-04-16T03:04:04.176Z,91.83
2018-04-16T03:06:37.127Z,92.14
2018-04-16T03:09:12.689Z,92.43
2018-04-16T03:11:45.759Z,92.59
2018-04-16T03:14:18.768Z,92.57
2018-04-16T03:16:51.839Z,92.47
2018-04-16T03:19:24.883Z,92.43
2018-04-16T03:21:57.855Z,92.48
2018-04-16T03:24:30.915Z,92.62
2018-04-16T03:27:03.843Z,92.79
2018-04-16T03:29:36.755Z,92.74
2018-04-16T03:32:09.799Z,92.82
2018-04-16T03:34:42.687Z,93.01
2018-04-16T03:37:15.615Z,93.61
2018-04-16T03:39:48.571Z,93.75
2018-04-16T03:42:21.632Z,93.69
2018-04-16T03:44:54.357Z,93.82
2018-04-16T03:47:27.335Z,93.85
2018-04-16T03:50:00.215Z,93.96
2018-04-16T03:52:33.123Z,93.92
2018-04-16T03:55:06.158Z,93.90
2018-04-16T03:57:33.635Z,93.74
2018-04-16T04:00:01.023Z,93.57
2018-04-16T04:02:28.404Z,93.50
2018-04-16T04:04:55.786Z,93.35
2018-04-16T04:07:23.171Z,93.37
2018-04-16T04:09:50.563Z,93.16
2018-04-16T04:12:17.943Z,93.12
2018-04-16T04:14:45.332Z,93.10
2018-04-16T04:17:12.715Z,93.06
2018-04-16T04:19:40.094Z,93.24
2018-04-16T04:22:07.495Z,93.00
2018-04-16T04:24:46.683Z,92.85
2018-04-16T04:27:25.908Z,92.74
2018-04-16T04:30:05.099Z,92.66
2018-04-16T04:32:32.490Z,92.94
2018-04-16T04:34:59.875Z,93.03
2018-04-16T04:37:27.255Z,93.52
2018-04-16T04:39:54.763Z,93.46
2018-04-16T04:42:22.139Z,92.96
2018-04-16T04:44:49.618Z,92.79
2018-04-16T04:47:17.017Z,92.95
2018-04-16T04:49:44.399Z,92.67
2018-04-16T04:52:11.788Z,92.66
2018-04-16T04:54:39.170Z,92.82
2018-04-16T04:57:06.570Z,93.13
2018-04-16T04:59:33.947Z,92.61
2018-04-16T05:02:01.332Z,92.25
2018-04-16T05:04:28.722Z,92.32
2018-04-16T05:06:56.111Z,92.38
2018-04-16T05:09:23.561Z,92.61
2018-04-16T05:11:50.945Z,92.69
2018-04-16T05:14:18.358Z,92.59
2018-04-16T05:16:45.743Z,92.57
2018-04-16T05:19:13.123Z,92.40
2018-04-16T05:21:40.521Z,92.26
2018-04-16T05:24:07.947Z,92.37
2018-04-16T05:26:35.327Z,92.47
2018-04-16T05:29:02.731Z,92.45
2018-04-16T05:31:30.187Z,92.44
2018-04-16T05:33:57.609Z,92.54
2018-04-16T05:36:24.995Z,92.39
2018-04-16T05:38:52.401Z,92.42
2018-04-16T05:41:19.791Z,92.55
2018-04-16T05:43:47.172Z,92.68
2018-04-16T05:46:14.563Z,92.51
2018-04-16T05:48:41.959Z,92.34
2018-04-16T05:51:09.343Z,92.45
2018-04-16T05:53:36.987Z,92.66
2018-04-16T05:56:04.370Z,92.46
2018-04-16T05:58:31.770Z,92.03
2018-04-16T06:00:59.150Z,91.63
2018-04-16T06:03:26.535Z,91.08
2018-04-16T06:05:53.926Z,90.43
2018-04-16T06:08:21.315Z,89.97
2018-04-16T06:10:48.713Z,90.23
2018-04-16T06:13:16.096Z,89.46
2018-04-16T06:15:43.482Z,89.15
2018-04-16T06:18:10.871Z,88.79
2018-04-16T06:20:38.257Z,87.53
2018-04-16T06:23:05.699Z,87.69
2018-04-16T06:25:33.087Z,87.95
2018-04-16T06:28:00.479Z,87.74
2018-04-16T06:30:27.871Z,87.56
2018-04-16T06:32:55.263Z,87.78
2018-04-16T06:35:22.918Z,87.90
2018-04-16T06:37:50.299Z,87.63
2018-04-16T06:40:17.694Z,87.15
2018-04-16T06:42:45.079Z,86.55
2018-04-16T06:45:12.467Z,86.37
2018-04-16T06:47:39.875Z,84.29
2018-04-16T06:50:07.267Z,84.46
2018-04-16T06:52:34.651Z,84.42
2018-04-16T06:55:02.108Z,83.69
2018-04-16T06:57:29.496Z,83.57
2018-04-16T06:59:56.999Z,83.58
2018-04-16T07:02:24.383Z,83.49
2018-04-16T07:04:51.768Z,83.52
2018-04-16T07:07:19.183Z,82.59
2018-04-16T07:09:46.557Z,82.32
2018-04-16T07:12:13.967Z,83.11
2018-04-16T07:14:41.355Z,82.88
2018-04-16T07:17:08.739Z,81.88
2018-04-16T07:19:36.135Z,82.25
2018-04-16T07:22:03.523Z,81.11
2018-04-16T07:24:31.251Z,80.76
2018-04-16T07:26:58.642Z,78.74
2018-04-16T07:29:26.026Z,77.77
2018-04-16T07:31:53.886Z,77.41
2018-04-16T07:34:21.272Z,77.46
2018-04-16T07:36:48.676Z,77.21
2018-04-16T07:39:16.063Z,77.28
2018-04-16T07:41:43.447Z,76.74
2018-04-16T07:44:10.838Z,75.67
2018-04-16T07:46:38.232Z,75.46
2018-04-16T07:49:05.660Z,75.77
2018-04-16T07:51:33.014Z,76.10
2018-04-16T07:54:00.404Z,75.95
2018-04-16T07:56:27.800Z,75.55
2018-04-16T07:58:55.186Z,75.85
2018-04-16T08:01:22.604Z,74.13
2018-04-16T08:03:49.975Z,75.00
2018-04-16T08:06:17.359Z,74.65
2018-04-16T08:08:44.763Z,74.32
2018-04-16T08:11:12.152Z,74.44
2018-04-16T08:13:39.983Z,75.08
2018-04-16T08:16:07.385Z,73.30
2018-04-16T08:18:34.756Z,73.74
2018-04-16T08:21:02.151Z,73.09
2018-04-16T08:23:29.535Z,73.06
2018-04-16T08:25:57.008Z,70.82
2018-04-16T08:28:24.391Z,71.90
2018-04-16T08:30:51.777Z,71.36
2018-04-16T08:33:19.235Z,71.01
2018-04-16T08:35:46.560Z,71.22
2018-04-16T08:38:13.957Z,71.17
2018-04-16T08:40:41.343Z,70.87
2018-04-16T08:43:08.727Z,71.21
2018-04-16T08:45:36.122Z,70.21
2018-04-16T08:48:03.511Z,69.81
2018-04-16T08:50:30.911Z,70.12
2018-04-16T08:52:58.299Z,70.12
2018-04-16T08:55:25.693Z,69.41
2018-04-16T08:57:53.084Z,68.15
2018-04-16T09:00:20.472Z,67.87
2018-04-16T09:02:47.868Z,68.31
2018-04-16T09:05:15.256Z,70.07
2018-04-16T09:07:42.643Z,69.30
2018-04-16T09:10:10.035Z,68.06
2018-04-16T09:12:37.424Z,66.74
2018-04-16T09:15:04.823Z,65.95
2018-04-16T09:17:32.210Z,66.26
2018-04-16T09:19:59.606Z,65.91
2018-04-16T09:22:27.007Z,65.21
2018-04-16T09:24:54.391Z,65.43
2018-04-16T09:27:22.290Z,66.29
2018-04-16T09:29:49.662Z,65.24
2018-04-16T09:32:17.058Z,64.57
2018-04-16T09:34:44.450Z,63.06
2018-04-16T09:37:11.843Z,63.19
2018-04-16T09:39:39.625Z,64.40
2018-04-16T09:42:06.954Z,64.49
2018-04-16T09:44:34.343Z,63.65
2018-04-16T09:47:01.740Z,64.39
2018-04-16T09:49:29.127Z,63.51
2018-04-16T09:51:56.523Z,64.41
2018-04-16T09:54:23.912Z,64.34
2018-04-16T09:56:51.304Z,64.51
2018-04-16T09:59:18.691Z,62.71
2018-04-16T10:01:50.855Z,61.87
2018-04-16T10:04:18.252Z,61.44
2018-04-16T10:06:45.635Z,59.88
2018-04-16T10:09:13.035Z,59.18
2018-04-16T10:11:40.530Z,56.27
2018-04-16T10:14:07.930Z,58.45
2018-04-16T10:16:35.323Z,54.32
2018-04-16T10:19:02.711Z,55.05
2018-04-16T10:21:30.111Z,56.87
2018-04-16T10:23:57.500Z,56.55
2018-04-16T10:26:24.915Z,58.72
2018-04-16T10:28:52.275Z,55.63
2018-04-16T10:31:19.667Z,57.42
2018-04-16T10:33:47.075Z,56.42
2018-04-16T10:36:14.475Z,54.41
2018-04-16T10:38:41.863Z,52.67
2018-04-16T10:41:09.270Z,49.04
2018-04-16T10:43:36.647Z,50.81
2018-04-16T10:46:04.040Z,48.18
2018-04-16T10:48:31.423Z,45.99
2018-04-16T10:50:58.817Z,44.72
2018-04-16T10:53:26.199Z,48.17
2018-04-16T10:55:53.598Z,46.01
2018-04-16T10:58:20.991Z,42.98
2018-04-16T11:00:48.375Z,43.73
2018-04-16T11:03:15.762Z,46.18
2018-04-16T11:05:43.185Z,46.69
2018-04-16T11:08:10.556Z,45.57
2018-04-16T11:10:37.951Z,45.48
2018-04-16T11:13:05.345Z,44.27
2018-04-16T11:15:32.731Z,44.11
2018-04-16T11:18:00.119Z,46.60
2018-04-16T11:20:27.499Z,45.17
2018-04-16T11:22:54.899Z,47.53
2018-04-16T11:25:22.283Z,45.27
2018-04-16T11:27:49.670Z,45.69
2018-04-16T11:30:17.069Z,44.79
2018-04-16T11:32:44.455Z,47.02
2018-04-16T11:35:11.847Z,47.10
2018-04-16T11:37:39.226Z,46.11
2018-04-16T11:40:06.623Z,44.79
2018-04-16T11:42:34.007Z,44.65
2018-04-16T11:45:01.403Z,46.30
2018-04-16T11:47:28.791Z,43.95
2018-04-16T11:49:56.171Z,40.60
2018-04-16T11:52:23.590Z,41.29
2018-04-16T11:54:50.999Z,44.84
2018-04-16T11:57:18.402Z,45.29
2018-04-16T11:59:45.791Z,43.70
2018-04-16T12:02:13.187Z,45.44
2018-04-16T12:04:40.662Z,44.82
2018-04-16T12:07:08.051Z,44.69
2018-04-16T12:09:35.459Z,45.51
2018-04-16T12:12:02.846Z,43.97
2018-04-16T12:14:30.240Z,43.53
2018-04-16T12:16:57.632Z,43.29
2018-04-16T12:19:25.024Z,43.29
2018-04-16T12:21:52.434Z,44.30
2018-04-16T12:24:19.819Z,44.30
2018-04-16T12:26:47.206Z,44.28
2018-04-16T12:29:14.604Z,42.16
2018-04-16T12:31:41.991Z,45.92
2018-04-16T12:34:09.391Z,42.09
2018-04-16T12:36:36.779Z,45.29
2018-04-16T12:39:04.203Z,44.62
2018-04-16T12:41:31.576Z,44.14
2018-04-16T12:43:58.952Z,43.79
2018-04-16T12:46:26.351Z,44.73
2018-04-16T12:48:53.738Z,45.31
2018-04-16T12:51:21.131Z,42.49
2018-04-16T12:53:48.523Z,44.39
2018-04-16T12:56:15.919Z,44.68
2018-04-16T12:58:43.316Z,46.05
2018-04-16T13:01:10.703Z,45.66
2018-04-16T13:03:38.094Z,47.35
2018-04-16T13:06:05.487Z,46.58
2018-04-16T13:08:32.883Z,46.21
2018-04-16T13:11:00.286Z,46.26
2018-04-16T13:13:27.671Z,46.99
2018-04-16T13:15:55.062Z,44.07
2018-04-16T13:18:22.460Z,46.72
2018-04-16T13:20:49.843Z,44.84
2018-04-16T13:23:17.355Z,46.92
2018-04-16T13:25:44.747Z,45.11
2018-04-16T13:28:12.135Z,46.80
2018-04-16T13:30:39.531Z,46.04
2018-04-16T13:33:06.923Z,45.97
2018-04-16T13:35:34.315Z,46.08
2018-04-16T13:38:01.707Z,46.51
2018-04-16T13:40:29.107Z,48.29
2018-04-16T13:42:56.492Z,47.63
2018-04-16T13:45:23.879Z,48.86
2018-04-16T13:47:51.293Z,47.01
2018-04-16T13:50:18.675Z,46.40
2018-04-16T13:52:46.074Z,47.38
2018-04-16T13:55:13.464Z,48.02
2018-04-16T13:57:40.869Z,48.96
2018-04-16T14:00:08.243Z,48.36
2018-04-16T14:02:35.751Z,48.08
2018-04-16T14:05:04.567Z,48.96
2018-04-16T14:07:32.038Z,47.21
2018-04-16T14:09:59.427Z,46.75
2018-04-16T14:12:26.818Z,47.49
2018-04-16T14:14:54.211Z,48.61
2018-04-16T14:17:21.793Z,47.02
2018-04-16T14:19:49.170Z,47.70
2018-04-16T14:22:16.640Z,46.27
2018-04-16T14:24:44.101Z,45.50
2018-04-16T14:27:11.480Z,45.75
2018-04-16T14:29:38.883Z,46.64
2018-04-16T14:32:06.379Z,47.12
2018-04-16T14:34:33.769Z,44.08
2018-04-16T14:37:01.167Z,45.45
2018-04-16T14:39:28.559Z,46.94
2018-04-16T14:41:55.980Z,47.70
2018-04-16T14:44:23.348Z,46.19
2018-04-16T14:46:50.743Z,48.31
2018-04-16T14:49:18.139Z,49.06
2018-04-16T14:51:45.563Z,47.33
2018-04-16T14:54:12.959Z,46.96
2018-04-16T14:56:40.397Z,46.94
2018-04-16T14:59:07.743Z,48.67
2018-04-16T15:01:35.137Z,48.14
2018-04-16T15:04:02.531Z,45.81
2018-04-16T15:06:29.927Z,46.83
2018-04-16T15:08:57.311Z,47.53
2018-04-16T15:11:24.715Z,46.60
2018-04-16T15:13:52.102Z,46.57
2018-04-16T15:16:19.510Z,46.62
2018-04-16T15:18:46.899Z,44.95
2018-04-16T15:21:14.351Z,46.00
2018-04-16T15:23:41.738Z,45.61
2018-04-16T15:26:09.199Z,44.27
2018-04-16T15:28:36.655Z,43.95
2018-04-16T15:31:04.048Z,41.78
2018-04-16T15:33:31.435Z,43.28
2018-04-16T15:35:58.827Z,44.39
2018-04-16T15:38:26.205Z,42.88
2018-04-16T15:40:53.599Z,42.96
2018-04-16T15:43:21.003Z,43.15
2018-04-16T15:45:48.382Z,43.11
2018-04-16T15:48:15.779Z,42.08
2018-04-16T15:50:43.160Z,45.33
2018-04-16T15:53:10.543Z,42.22
2018-04-16T15:55:37.951Z,43.47
2018-04-16T15:58:05.347Z,44.86
2018-04-16T16:00:32.735Z,44.97
2018-04-16T16:03:00.115Z,46.05
2018-04-16T16:05:27.506Z,45.42
2018-04-16T16:07:54.898Z,46.92
2018-04-16T16:10:22.291Z,45.44
2018-04-16T16:12:49.677Z,44.35
2018-04-16T16:15:17.108Z,45.59
2018-04-16T16:17:44.458Z,46.41
2018-04-16T16:20:11.843Z,45.28
2018-04-16T16:22:39.239Z,46.12
2018-04-16T16:25:06.614Z,43.82
2018-04-16T16:27:34.010Z,44.02
2018-04-16T16:30:01.419Z,44.08
2018-04-16T16:32:28.811Z,42.43
2018-04-16T16:34:56.193Z,42.48
2018-04-16T16:37:23.596Z,43.13
2018-04-16T16:39:50.985Z,44.14
2018-04-16T16:42:18.522Z,43.20
2018-04-16T16:44:45.935Z,43.84
2018-04-16T16:47:13.322Z,43.33
2018-04-16T16:49:40.707Z,43.62
2018-04-16T16:52:08.113Z,43.78
2018-04-16T16:54:35.483Z,44.19
2018-04-16T16:57:02.860Z,43.68
2018-04-16T16:59:30.523Z,44.26
2018-04-16T17:01:57.908Z,44.19
2018-04-16T17:04:25.291Z,45.64
2018-04-16T17:06:52.684Z,45.44
2018-04-16T17:09:20.059Z,44.89
2018-04-16T17:11:47.470Z,45.52
2018-04-16T17:14:14.860Z,45.20
2018-04-16T17:16:42.243Z,46.42
2018-04-16T17:19:09.623Z,46.28
2018-04-16T17:21:37.002Z,46.61
2018-04-16T17:24:04.395Z,46.59
2018-04-16T17:26:31.861Z,46.86
2018-04-16T17:28:59.179Z,46.95
2018-04-16T17:31:26.568Z,46.12
2018-04-16T17:33:53.952Z,46.70
2018-04-16T17:36:21.363Z,46.68
2018-04-16T17:38:48.795Z,47.27
2018-04-16T17:41:16.298Z,47.21
2018-04-16T17:43:43.687Z,47.47
2018-04-16T17:46:11.075Z,48.89
2018-04-16T17:48:38.488Z,49.50
2018-04-16T17:51:05.874Z,49.36
2018-04-16T17:53:33.267Z,48.99
2018-04-16T17:56:00.662Z,49.76
2018-04-16T17:58:28.055Z,50.06
2018-04-16T18:00:55.451Z,50.33
2018-04-16T18:03:22.884Z,50.32
2018-04-16T18:05:50.271Z,50.86
2018-04-16T18:08:17.655Z,51.83
2018-04-16T18:10:45.047Z,52.01
2018-04-16T18:13:12.706Z,51.77
2018-04-16T18:15:40.094Z,51.68
2018-04-16T18:18:07.529Z,51.69
2018-04-16T18:20:34.952Z,52.26
2018-04-16T18:23:02.339Z,53.51
2018-04-16T18:25:29.742Z,54.15
2018-04-16T18:27:57.130Z,54.49
2018-04-16T18:30:24.519Z,55.10
2018-04-16T18:32:51.917Z,54.92
2018-04-16T18:35:19.302Z,54.93
2018-04-16T18:37:46.698Z,55.88
2018-04-16T18:40:14.093Z,56.89
2018-04-16T18:42:41.484Z,57.73
2018-04-16T18:45:08.870Z,58.38
2018-04-16T18:47:36.278Z,59.02
2018-04-16T18:50:03.724Z,58.36
2018-04-16T18:52:31.107Z,58.29
2018-04-16T18:54:58.502Z,58.60
2018-04-16T18:57:25.914Z,59.00
2018-04-16T18:59:53.303Z,58.11
2018-04-16T19:02:21.139Z,59.28
2018-04-16T19:04:48.545Z,58.92
2018-04-16T19:07:15.923Z,58.90
2018-04-16T19:09:43.318Z,58.71
2018-04-16T19:12:10.711Z,58.84
2018-04-16T19:14:38.123Z,58.76
2018-04-16T19:17:05.519Z,58.80
2018-04-16T19:19:33.342Z,58.78
2018-04-16T19:22:00.935Z,59.22
2018-04-16T19:24:28.314Z,59.18
2018-04-16T19:27:01.114Z,59.34
2018-04-16T19:29:28.524Z,59.66
2018-04-16T19:31:55.903Z,60.06
2018-04-16T19:34:28.808Z,60.29
2018-04-16T19:36:56.226Z,60.72
2018-04-16T19:39:23.615Z,61.11
2018-04-16T19:41:56.591Z,61.47
2018-04-16T19:44:24.031Z,61.39
2018-04-16T19:46:51.439Z,61.61
2018-04-16T19:49:24.471Z,61.39
2018-04-16T19:51:51.864Z,61.45
2018-04-16T19:54:19.350Z,61.58
2018-04-16T19:56:52.271Z,62.10
2018-04-16T19:59:19.672Z,62.33
2018-04-16T20:01:52.576Z,62.73
2018-04-16T20:04:19.975Z,62.92
2018-04-16T20:06:47.360Z,62.74
2018-04-16T20:09:14.788Z,63.04
2018-04-16T20:11:42.139Z,62.66
2018-04-16T20:14:09.595Z,63.27
2018-04-16T20:16:36.986Z,62.82
2018-04-16T20:19:04.383Z,62.90
2018-04-16T20:21:31.776Z,63.17
2018-04-16T20:23:59.167Z,63.17
2018-04-16T20:26:26.559Z,63.67
2018-04-16T20:28:53.952Z,64.37
2018-04-16T20:31:21.338Z,64.21
2018-04-16T20:33:48.742Z,64.63
2018-04-16T20:36:16.122Z,65.20
2018-04-16T20:38:43.511Z,65.51
2018-04-16T20:41:10.909Z,66.17
2018-04-16T20:43:38.295Z,65.67
2018-04-16T20:46:06.016Z,66.30
2018-04-16T20:48:33.387Z,67.22
2018-04-16T20:51:00.771Z,67.70
2018-04-16T20:53:28.163Z,68.41
2018-04-16T20:55:55.551Z,68.81
2018-04-16T20:58:22.978Z,68.96
2018-04-16T21:00:50.370Z,69.24
2018-04-16T21:03:17.751Z,69.16
2018-04-16T21:05:45.147Z,69.46
2018-04-16T21:08:12.535Z,69.77
2018-04-16T21:10:39.931Z,69.99
2018-04-16T21:13:07.507Z,70.33
2018-04-16T21:15:34.895Z,70.39
2018-04-16T21:18:02.282Z,70.32
2018-04-16T21:20:29.675Z,71.06
2018-04-16T21:25:23.751Z,71.82
2018-04-16T21:27:51.148Z,72.53
2018-04-16T21:30:18.531Z,73.06
2018-04-16T21:32:45.927Z,73.28
2018-04-16T21:35:13.339Z,73.58
2018-04-16T21:37:40.780Z,74.16
2018-04-16T21:40:08.174Z,74.65
2018-04-16T21:42:35.563Z,74.84
2018-04-16T21:45:02.963Z,74.80
2018-04-16T21:47:30.687Z,74.59
2018-04-16T21:49:58.079Z,74.33
2018-04-16T21:52:25.471Z,75.09
2018-04-16T21:54:52.867Z,76.25
2018-04-16T21:57:20.259Z,75.93
2018-04-16T21:59:47.651Z,76.20
2018-04-16T22:02:15.035Z,76.29
2018-04-16T22:04:42.425Z,76.25
2018-04-16T22:07:09.815Z,76.79
2018-04-16T22:09:37.214Z,77.31
2018-04-16T22:12:04.607Z,77.11
2018-04-16T22:14:31.991Z,77.39
2018-04-16T22:16:59.383Z,77.68
2018-04-16T22:19:26.777Z,77.82
2018-04-16T22:21:54.959Z,77.41
2018-04-16T22:24:22.751Z,77.45
2018-04-16T22:26:50.139Z,76.46
2018-04-16T22:29:17.539Z,76.71
2018-04-16T22:31:44.924Z,77.60
2018-04-16T22:34:12.319Z,78.04
2018-04-16T22:36:39.717Z,78.38
2018-04-16T22:39:07.099Z,78.60
2018-04-16T22:41:34.488Z,78.59
2018-04-16T22:44:01.884Z,78.69
2018-04-16T22:46:29.275Z,78.48
2018-04-16T22:48:57.111Z,78.25
2018-04-16T22:51:24.498Z,78.48
2018-04-16T22:53:51.886Z,78.79
2018-04-16T22:56:19.279Z,79.07
2018-04-16T22:58:46.668Z,79.33
2018-04-16T23:01:14.062Z,79.70
2018-04-16T23:03:41.452Z,79.62
2018-04-16T23:06:08.835Z,79.51
2018-04-16T23:08:36.226Z,79.42
2018-04-16T23:11:03.643Z,79.55
2018-04-16T23:13:31.019Z,79.81
2018-04-16T23:15:58.399Z,79.77
2018-04-16T23:18:25.792Z,79.80
2018-04-16T23:20:53.186Z,79.95
2018-04-16T23:23:20.574Z,80.00
2018-04-16T23:25:47.978Z,80.00
2018-04-16T23:28:15.364Z,80.15
2018-04-16T23:30:42.746Z,80.53
2018-04-16T23:33:10.149Z,80.75
2018-04-16T23:35:37.531Z,81.26
2018-04-16T23:38:04.928Z,81.41
2018-04-16T23:40:32.320Z,81.49
2018-04-16T23:42:59.707Z,81.68
2018-04-16T23:45:27.098Z,82.11
2018-04-16T23:47:54.582Z,81.86
2018-04-16T23:50:22.322Z,82.12
2018-04-16T23:52:49.707Z,82.11
2018-04-16T23:55:17.092Z,82.11
2018-04-16T23:57:44.485Z,82.01
